createdAt,value
2022-10-23T07:09:36.757Z,101190.88
2022-10-23T07:17:46.778Z,101188.78
2022-10-23T07:21:26.396Z,101189.59
2022-10-23T07:25:16.880Z,101195.06
2022-10-23T07:29:26.033Z,101195.66
2022-10-23T07:33:22.365Z,101195.00
2022-10-23T07:36:56.302Z,101193.37
2022-10-23T07:40:31.454Z,101188.34
2022-10-23T07:47:48.886Z,101181.09
2022-10-23T07:55:32.726Z,101189.59
2022-10-23T07:59:07.770Z,101197.00
2022-10-23T08:02:30.625Z,101199.06
2022-10-23T08:10:49.318Z,101174.91
2022-10-23T08:13:30.929Z,101183.13
2022-10-23T08:17:44.185Z,101175.47
2022-10-23T08:22:29.476Z,101180.97
2022-10-23T08:39:03.861Z,101183.63
2022-10-23T08:42:39.735Z,101177.25
2022-10-23T08:46:13.705Z,101179.56
2022-10-23T08:50:03.820Z,101188.34
2022-10-23T08:53:49.710Z,101187.28
2022-10-23T08:57:38.853Z,101185.13
2022-10-23T09:01:27.082Z,101178.50
2022-10-23T09:05:52.015Z,101174.16
2022-10-23T09:09:46.350Z,101171.50
2022-10-23T09:26:38.197Z,101177.81
2022-10-23T09:30:36.506Z,101184.00
2022-10-23T09:34:11.633Z,101202.94
2022-10-23T09:37:51.284Z,101205.69
2022-10-23T09:41:38.446Z,101199.09
2022-10-23T09:45:32.538Z,101206.75
2022-10-23T09:49:40.130Z,101191.56
2022-10-23T09:54:03.411Z,101201.41
2022-10-23T09:57:51.318Z,101198.47
2022-10-23T10:01:45.640Z,101204.69
2022-10-23T10:05:42.577Z,101204.31
2022-10-23T10:09:20.872Z,101193.53
2022-10-23T10:13:02.091Z,101186.37
2022-10-23T10:17:07.038Z,101181.44
2022-10-23T10:21:55.052Z,101175.84
2022-10-23T10:26:15.224Z,101170.75
2022-10-23T10:34:22.195Z,101154.66
2022-10-23T10:38:23.448Z,101163.56
2022-10-23T10:42:23.664Z,101161.84
2022-10-23T10:46:35.466Z,101150.75
2022-10-23T10:50:02.886Z,101143.84
2022-10-23T10:57:42.156Z,101129.41
2022-10-23T11:00:56.024Z,101126.66
2022-10-23T11:04:30.105Z,101122.69
2022-10-23T11:08:15.161Z,101111.22
2022-10-23T11:11:49.145Z,101099.47
2022-10-23T11:15:29.210Z,101102.00
2022-10-23T11:19:04.525Z,101097.34
2022-10-23T11:23:01.003Z,101093.53
2022-10-23T11:26:38.678Z,101097.84
2022-10-23T11:29:59.029Z,101093.53
2022-10-23T11:33:22.469Z,101102.69
2022-10-23T11:36:53.273Z,101089.19
2022-10-23T11:40:21.563Z,101090.34
2022-10-23T11:43:37.761Z,101094.69
2022-10-23T11:47:39.561Z,101096.78
2022-10-23T11:50:45.136Z,101093.28
2022-10-23T11:54:35.986Z,101094.44
2022-10-23T11:58:23.348Z,101092.97
2022-10-23T12:01:36.397Z,101078.38
2022-10-23T12:04:50.168Z,101077.28
2022-10-23T12:08:01.282Z,101075.16
2022-10-23T12:11:27.638Z,101066.63
2022-10-23T12:18:52.762Z,101066.22
2022-10-23T12:22:12.340Z,101051.25
2022-10-23T12:26:10.589Z,101056.75
2022-10-23T12:34:11.661Z,101040.31
2022-10-23T12:38:03.788Z,101034.16
2022-10-23T12:41:47.152Z,101035.00
2022-10-23T12:58:44.231Z,101015.53
2022-10-23T13:02:28.570Z,101006.97
2022-10-23T13:06:03.249Z,101006.31
2022-10-23T13:09:41.459Z,101003.78
2022-10-23T13:13:25.669Z,100998.75
2022-10-23T13:17:22.456Z,101001.88
2022-10-23T13:20:58.121Z,100984.09
2022-10-23T13:24:21.203Z,100981.56
2022-10-23T13:28:04.201Z,100985.78
2022-10-23T13:31:11.174Z,100980.78
2022-10-23T13:34:34.898Z,100973.03
2022-10-23T13:38:38.061Z,100973.31
2022-10-23T13:42:13.959Z,100958.66
2022-10-23T13:45:41.056Z,100957.00
2022-10-23T13:48:47.130Z,100952.69
2022-10-23T13:52:00.463Z,100965.13
2022-10-23T13:55:26.702Z,100963.28
2022-10-23T13:58:37.280Z,100953.91
2022-10-23T14:02:19.193Z,100949.13
2022-10-23T14:05:59.220Z,100941.63
2022-10-23T14:09:21.143Z,100947.03
2022-10-23T14:12:45.836Z,100935.03
2022-10-23T14:15:55.629Z,100936.62
2022-10-23T14:18:59.791Z,100929.16
2022-10-23T14:22:10.456Z,100925.72
2022-10-23T14:26:15.591Z,100924.13
2022-10-23T14:29:50.204Z,100925.75
2022-10-23T14:33:17.180Z,100917.22
2022-10-23T14:36:50.284Z,100904.41
2022-10-23T14:40:21.929Z,100912.44
2022-10-23T14:43:33.173Z,100919.44
2022-10-23T14:46:57.115Z,100914.66
2022-10-23T14:50:12.342Z,100903.72
2022-10-23T14:53:36.664Z,100897.09
2022-10-23T14:57:23.152Z,100893.63
2022-10-23T15:00:58.011Z,100889.66
2022-10-23T15:04:04.198Z,100883.78
2022-10-23T15:07:29.090Z,100890.75
2022-10-23T15:11:13.377Z,100892.34
2022-10-23T15:14:17.917Z,100882.19
2022-10-23T15:17:24.802Z,100876.34
2022-10-23T15:20:29.932Z,100867.78
2022-10-23T15:23:36.848Z,100849.38
2022-10-23T15:26:44.800Z,100845.94
2022-10-23T15:29:48.622Z,100844.84
2022-10-23T15:32:57.645Z,100848.59
2022-10-23T15:36:20.688Z,100861.16
2022-10-23T15:39:59.735Z,100860.37
2022-10-23T15:43:34.718Z,100862.50
2022-10-23T15:46:58.081Z,100864.66
2022-10-23T15:50:09.758Z,100866.50
2022-10-23T15:53:15.714Z,100878.50
2022-10-23T15:56:50.957Z,100873.72
2022-10-23T16:00:21.704Z,100882.28
2022-10-23T16:04:07.781Z,100874.25
2022-10-23T16:07:40.123Z,100872.91
2022-10-23T16:10:44.455Z,100871.84
2022-10-23T16:13:51.663Z,100875.31
2022-10-23T16:17:03.326Z,100875.31
2022-10-23T16:20:34.037Z,100874.25
2022-10-23T16:24:00.103Z,100884.13
2022-10-23T16:27:23.865Z,100889.72
2022-10-23T16:30:30.279Z,100881.16
2022-10-23T16:37:06.982Z,100917.75
2022-10-23T16:40:25.767Z,100926.00
2022-10-23T16:43:31.816Z,100914.78
2022-10-23T16:46:35.886Z,100914.78
2022-10-23T16:49:39.114Z,100911.31
2022-10-23T16:52:46.236Z,100905.72
2022-10-23T16:55:53.606Z,100907.06
2022-10-23T16:59:01.352Z,100910.25
2022-10-23T17:02:50.621Z,100926.00
2022-10-23T17:06:01.593Z,100932.94
2022-10-23T17:09:07.595Z,100929.22
2022-10-23T17:12:13.308Z,100944.09
2022-10-23T17:15:25.647Z,100938.81
2022-10-23T17:18:45.325Z,100943.06
2022-10-23T17:21:54.250Z,100932.66
2022-10-23T17:24:57.972Z,100931.06
2022-10-23T17:28:21.520Z,100940.38
2022-10-23T17:31:26.669Z,100930.50
2022-10-23T17:34:32.451Z,100914.50
2022-10-23T17:37:35.204Z,100920.66
2022-10-23T17:40:39.930Z,100923.84
2022-10-23T17:43:45.804Z,100916.66
2022-10-23T17:46:58.367Z,100923.59
2022-10-23T17:50:03.196Z,100914.81
2022-10-23T17:53:08.817Z,100906.00
2022-10-23T17:56:19.051Z,100893.72
2022-10-23T17:59:24.624Z,100892.13
2022-10-23T18:02:31.376Z,100889.72
2022-10-23T18:09:07.978Z,100885.97
2022-10-23T18:12:20.362Z,100893.44
2022-10-23T18:15:25.174Z,100898.22
2022-10-23T18:18:30.142Z,100893.16
2022-10-23T18:21:35.954Z,100901.97
2022-10-23T18:24:54.497Z,100899.59
2022-10-23T18:28:01.759Z,100901.72
2022-10-23T18:31:10.834Z,100902.50
2022-10-23T18:34:19.127Z,100912.09
2022-10-23T18:37:26.799Z,100911.03
2022-10-23T18:40:34.764Z,100913.69
2022-10-23T18:43:44.362Z,100903.03
2022-10-23T18:46:50.868Z,100898.47
2022-10-23T18:49:58.670Z,100893.44
2022-10-23T18:53:02.191Z,100892.09
2022-10-23T18:56:12.319Z,100891.81
2022-10-23T18:59:19.123Z,100887.28
2022-10-23T19:02:25.979Z,100892.34
2022-10-23T19:05:29.632Z,100899.53
2022-10-23T19:08:37.117Z,100895.00
2022-10-23T19:11:40.530Z,100895.53
2022-10-23T19:14:47.498Z,100891.78
2022-10-23T19:17:53.920Z,100882.19
2022-10-23T19:20:57.314Z,100881.13
2022-10-23T19:24:07.669Z,100883.28
2022-10-23T19:27:10.892Z,100888.59
2022-10-23T19:30:19.334Z,100891.78
2022-10-23T19:33:26.158Z,100892.31
2022-10-23T19:36:32.128Z,100896.03
2022-10-23T19:39:36.502Z,100900.28
2022-10-23T19:42:44.920Z,100898.13
2022-10-23T19:45:48.352Z,100898.91
2022-10-23T19:48:51.303Z,100900.28
2022-10-23T19:51:57.263Z,100900.22
2022-10-23T19:55:03.331Z,100897.56
2022-10-23T19:58:06.576Z,100894.69
2022-10-23T20:01:10.807Z,100889.03
2022-10-23T20:04:14.942Z,100892.47
2022-10-23T20:07:19.418Z,100892.78
2022-10-23T20:10:25.946Z,100902.34
2022-10-23T20:13:28.687Z,100899.66
2022-10-23T20:16:35.556Z,100905.75
2022-10-23T20:19:38.825Z,100902.00
2022-10-23T20:22:44.073Z,100900.38
2022-10-23T20:25:47.278Z,100897.38
2022-10-23T20:28:55.989Z,100900.53
2022-10-23T20:32:21.833Z,100894.63
2022-10-23T20:39:07.879Z,100885.03
2022-10-23T20:42:13.647Z,100881.06
2022-10-23T20:45:19.296Z,100878.66
2022-10-23T20:48:22.245Z,100875.50
2022-10-23T20:51:27.978Z,100867.28
2022-10-23T20:54:52.460Z,100871.00
2022-10-23T20:57:55.411Z,100862.75
2022-10-23T21:01:10.742Z,100860.66
2022-10-23T21:04:21.726Z,100847.59
2022-10-23T21:07:29.424Z,100852.62
2022-10-23T21:10:33.956Z,100856.56
2022-10-23T21:13:39.986Z,100863.16
2022-10-23T21:16:46.527Z,100851.97
2022-10-23T21:19:54.337Z,100860.19
2022-10-23T21:22:57.745Z,100845.84
2022-10-23T21:26:06.170Z,100842.91
2022-10-23T21:29:18.479Z,100843.47
2022-10-23T21:32:28.558Z,100852.25
2022-10-23T21:35:31.916Z,100850.66
2022-10-23T21:38:36.311Z,100845.00
2022-10-23T21:41:39.004Z,100848.97
2022-10-23T21:44:42.001Z,100842.88
2022-10-23T21:47:45.201Z,100848.22
2022-10-23T21:53:53.911Z,100850.13
2022-10-23T21:57:03.470Z,100849.06
2022-10-23T22:00:10.167Z,100854.13
2022-10-23T22:03:16.475Z,100843.78
2022-10-23T22:06:25.122Z,100847.00
2022-10-23T22:09:27.763Z,100837.66
2022-10-23T22:12:31.436Z,100832.59
2022-10-23T22:15:36.276Z,100838.69
2022-10-23T22:18:39.710Z,100846.66
2022-10-23T22:21:43.904Z,100855.69
2022-10-23T22:24:48.105Z,100857.78
2022-10-23T22:27:53.798Z,100850.09
2022-10-23T22:30:56.908Z,100840.53
2022-10-23T22:34:08.592Z,100847.97
2022-10-23T22:37:21.865Z,100840.53
2022-10-23T22:40:24.933Z,100850.37
2022-10-23T22:43:29.479Z,100849.34
2022-10-23T22:46:34.349Z,100847.47
2022-10-23T22:49:44.302Z,100851.72
2022-10-23T22:52:49.008Z,100843.19
2022-10-23T22:55:52.953Z,100845.25
2022-10-23T22:59:15.468Z,100842.81
2022-10-23T23:02:23.405Z,100850.97
2022-10-23T23:05:25.755Z,100850.09
2022-10-23T23:08:28.517Z,100846.78
2022-10-23T23:11:40.764Z,100830.47
2022-10-23T23:14:54.412Z,100833.28
2022-10-23T23:17:57.466Z,100828.69
2022-10-23T23:21:02.349Z,100829.38
2022-10-23T23:24:08.073Z,100826.41
2022-10-23T23:27:13.601Z,100824.78
2022-10-23T23:30:16.342Z,100830.81
2022-10-23T23:33:19.936Z,100845.06
2022-10-23T23:36:25.548Z,100829.06
2022-10-23T23:39:28.752Z,100829.81
2022-10-23T23:42:35.990Z,100824.69
2022-10-23T23:45:38.931Z,100822.25
2022-10-23T23:48:47.176Z,100812.44
2022-10-23T23:51:50.593Z,100814.06
2022-10-23T23:54:53.299Z,100817.25
2022-10-23T23:57:55.983Z,100823.34
